18.3 C
London
Saturday, October 1, 2022

ACCIDENT: Transair SH36 At Honolulu Gear Up Landing

- Advertisement - Booking.com
- Advertisement -spot_imgspot_imgspot_imgspot_img

A Transair Shorts 360, registration N4476F, flying from Kahului, Hawaii to Honolulu, Hawaii (USA) with two crew, maintained routine communication throughout the approach and landing on runway 04R at 04:02L (14:02Z) until after touch down, when tower inquired, “did the gear collapse or did you land gear up?” There were no injuries, although the airplane was severely damaged.

The airplane landed with its gear up, according to the FAA.

Related NOTAMs:
!HNL 08/161 HNL RWY 04R/22L CLSD 2108201604-2108201730
!HNL 08/162 HNL RWY 04R/22L CLSD 2108201703-2108201930
!HNL 08/163 HNL RWY 04R/22L CLSD 2108201921-2108202130
!HNL 08/164 HNL RWY 04R/22L CLSD 2108202124-2108202330
!HNL 08/159 HNL RWY 04R PAPI U/S 2108201544-2108202359EST
!HNL 08/160 HNL RWY 22L RWY END ID LGT U/S 2108201547-2108202359EST
!HNL 08/157 HNL NAV ILS RWY 04R U/S 2108201540-2108202359EST
!HNL 08/158 HNL RWY 04R ALS U/S 2108201542-2108202359EST

Metars:
PHNL 201553Z 07008KT 10SM FEW025 FEW042 25/18 A3003 RMK AO2 SLP169 T02500178=
PHNL 201453Z 07008KT 10SM FEW022 FEW049 24/18 A3002 RMK AO2 SLP164 60000 T02440183 55005=
PHNL 201353Z 06009KT 10SM FEW024 FEW038 25/18 A3001 RMK AO2 RAE33 SLP163 P0000 T02500183=
PHNL 201253Z 06012KT 10SM -RA FEW022 FEW040 SCT060 25/19 A3002 RMK AO2 RAB42 SLP164 P0000 T02500189=
PHNL 201153Z 05012KT 10SM FEW022 SCT055 26/19 A3003 RMK AO2 SLP169 60000 70006 T02560189 10261 20256 58010=
PHNL 201053Z 06009KT 10SM FEW022 SCT050 26/19 A3004 RMK AO2 SLP172 T02560189=
PHNL 200953Z 06012G18KT 10SM FEW023 FEW038 SCT050 26/19 A3005 RMK AO2 SLP177 T02560189 403060233=

Source: Avherald

- Advertisement -
Latest news
- Advertisement - Get a .com now from $4.99*/yr with GoDaddy!
- Advertisement -
- Advertisement -
Related news
- Advertisement -spot_img

LEAVE A REPLY

Please enter your comment!
Please enter your name here